sensor_id;sensor_type;location;lat;lon;timestamp;P1;durP1;ratioP1;P2;durP2;ratioP2
71176;SDS011;58877;51.992;4.504;2022-10-16T00:01:46;1.42;;;1.39;;
71176;SDS011;58877;51.992;4.504;2022-10-16T00:04:12;1.33;;;1.30;;
71176;SDS011;58877;51.992;4.504;2022-10-16T00:06:38;1.39;;;1.36;;
71176;SDS011;58877;51.992;4.504;2022-10-16T00:09:04;1.28;;;1.24;;
71176;SDS011;58877;51.992;4.504;2022-10-16T00:11:31;1.51;;;1.48;;
71176;SDS011;58877;51.992;4.504;2022-10-16T00:14:00;1.18;;;1.16;;
71176;SDS011;58877;51.992;4.504;2022-10-16T00:16:27;1.24;;;1.22;;
71176;SDS011;58877;51.992;4.504;2022-10-16T00:18:54;1.13;;;1.10;;
71176;SDS011;58877;51.992;4.504;2022-10-16T00:21:22;1.33;;;1.30;;
71176;SDS011;58877;51.992;4.504;2022-10-16T00:23:51;1.13;;;1.11;;
71176;SDS011;58877;51.992;4.504;2022-10-16T00:26:18;1.19;;;1.17;;
71176;SDS011;58877;51.992;4.504;2022-10-16T00:28:45;1.03;;;1.01;;
71176;SDS011;58877;51.992;4.504;2022-10-16T00:31:12;1.19;;;1.17;;
71176;SDS011;58877;51.992;4.504;2022-10-16T00:33:38;1.33;;;1.31;;
71176;SDS011;58877;51.992;4.504;2022-10-16T00:36:06;0.91;;;0.89;;
71176;SDS011;58877;51.992;4.504;2022-10-16T00:38:34;0.89;;;0.87;;
71176;SDS011;58877;51.992;4.504;2022-10-16T00:41:00;0.67;;;0.65;;
71176;SDS011;58877;51.992;4.504;2022-10-16T00:45:57;0.84;;;0.82;;
71176;SDS011;58877;51.992;4.504;2022-10-16T00:48:24;0.86;;;0.83;;
71176;SDS011;58877;51.992;4.504;2022-10-16T00:50:49;0.87;;;0.83;;
71176;SDS011;58877;51.992;4.504;2022-10-16T00:53:15;0.75;;;0.72;;
71176;SDS011;58877;51.992;4.504;2022-10-16T00:55:42;1.05;;;1.02;;
71176;SDS011;58877;51.992;4.504;2022-10-16T00:58:08;1.00;;;0.97;;
71176;SDS011;58877;51.992;4.504;2022-10-16T01:00:34;1.34;;;1.31;;
71176;SDS011;58877;51.992;4.504;2022-10-16T01:03:01;1.18;;;1.16;;
71176;SDS011;58877;51.992;4.504;2022-10-16T01:05:43;1.22;;;1.19;;
71176;SDS011;58877;51.992;4.504;2022-10-16T01:08:21;1.20;;;1.17;;
71176;SDS011;58877;51.992;4.504;2022-10-16T01:10:59;;;;1.15;;
71176;SDS011;58877;51.992;4.504;2022-10-16T01:13:41;1.32;;;1.28;;
71176;SDS011;58877;51.992;4.504;2022-10-16T01:16:13;1.34;;;1.30;;
71176;SDS011;58877;51.992;4.504;2022-10-16T01:18:50;1.40;;;1.37;;
71176;SDS011;58877;51.992;4.504;2022-10-16T01:21:24;1.23;;;1.22;;
71176;SDS011;58877;51.992;4.504;2022-10-16T01:29:32;1.45;;;1.44;;
71176;SDS011;58877;51.992;4.504;2022-10-16T01:32:13;1.28;;;1.26;;
71176;SDS011;58877;51.992;4.504;2022-10-16T01:35:13;1.28;;;1.25;;
71176;SDS011;58877;51.992;4.504;2022-10-16T01:40:47;1.12;;;1.11;;
71176;SDS011;58877;51.992;4.504;2022-10-16T01:43:22;1.10;;;1.09;;
71176;SDS011;58877;51.992;4.504;2022-10-16T01:45:57;1.41;;;1.41;;
71176;SDS011;58877;51.992;4.504;2022-10-16T01:48:25;1.34;;;1.34;;
71176;SDS011;58877;51.992;4.504;2022-10-16T01:50:54;1.39;;;1.39;;
71176;SDS011;58877;51.992;4.504;2022-10-16T01:53:40;1.27;;;1.27;;
71176;SDS011;58877;51.992;4.504;2022-10-16T01:56:12;1.28;;;1.28;;
71176;SDS011;58877;51.992;4.504;2022-10-16T01:58:44;1.36;;;1.36;;
71176;SDS011;58877;51.992;4.504;2022-10-16T02:01:18;1.55;;;1.55;;
71176;SDS011;58877;51.992;4.504;2022-10-16T02:03:46;1.43;;;1.43;;
71176;SDS011;58877;51.992;4.504;2022-10-16T02:06:18;1.47;;;1.47;;
71176;SDS011;58877;51.992;4.504;2022-10-16T02:08:44;1.66;;;1.66;;
71176;SDS011;58877;51.992;4.504;2022-10-16T02:11:10;1.77;;;1.77;;
71176;SDS011;58877;51.992;4.504;2022-10-16T02:13:57;1.72;;;1.71;;
71176;SDS011;58877;51.992;4.504;2022-10-16T02:16:33;1.70;;;1.68;;
71176;SDS011;58877;51.992;4.504;2022-10-16T02:19:01;1.29;;;1.29;;
71176;SDS011;58877;51.992;4.504;2022-10-16T02:21:29;1.57;;;1.57;;
71176;SDS011;58877;51.992;4.504;2022-10-16T02:24:18;1.75;;;1.75;;
71176;SDS011;58877;51.992;4.504;2022-10-16T02:26:57;1.56;;;1.56;;
71176;SDS011;58877;51.992;4.504;2022-10-16T02:29:27;1.48;;;1.48;;
71176;SDS011;58877;51.992;4.504;2022-10-16T02:31:55;1.69;;;1.68;;
71176;SDS011;58877;51.992;4.504;2022-10-16T02:34:27;1.39;;;1.38;;
71176;SDS011;58877;51.992;4.504;2022-10-16T02:36:56;1.43;;;1.43;;
71176;SDS011;58877;51.992;4.504;2022-10-16T02:39:24;1.30;;;1.30;;
71176;SDS011;58877;51.992;4.504;2022-10-16T02:41:53;1.08;;;1.08;;
71176;SDS011;58877;51.992;4.504;2022-10-16T02:44:19;1.48;;;1.48;;
71176;SDS011;58877;51.992;4.504;2022-10-16T02:46:45;1.56;;;1.56;;
71176;SDS011;58877;51.992;4.504;2022-10-16T02:49:10;1.53;;;1.53;;
71176;SDS011;58877;51.992;4.504;2022-10-16T02:51:36;1.32;;;1.31;;
71176;SDS011;58877;51.992;4.504;2022-10-16T02:54:02;1.46;;;1.45;;
71176;SDS011;58877;51.992;4.504;2022-10-16T02:56:28;1.28;;;1.27;;
71176;SDS011;58877;51.992;4.504;2022-10-16T02:58:54;1.31;;;1.27;;
71176;SDS011;58877;51.992;4.504;2022-10-16T03:01:20;1.65;;;1.59;;
71176;SDS011;58877;51.992;4.504;2022-10-16T03:03:45;1.42;;;1.37;;
71176;SDS011;58877;51.992;4.504;2022-10-16T03:06:11;1.48;;;1.43;;
71176;SDS011;58877;51.992;4.504;2022-10-16T03:08:36;1.90;;;1.83;;
71176;SDS011;58877;51.992;4.504;2022-10-16T03:11:01;1.33;;;1.28;;
71176;SDS011;58877;51.992;4.504;2022-10-16T03:13:27;1.23;;;1.19;;
71176;SDS011;58877;51.992;4.504;2022-10-16T03:15:52;1.14;;;1.11;;
71176;SDS011;58877;51.992;4.504;2022-10-16T03:18:18;1.45;;;1.40;;
71176;SDS011;58877;51.992;4.504;2022-10-16T03:20:44;1.74;;;1.65;;
71176;SDS011;58877;51.992;4.504;2022-10-16T03:23:09;1.64;;;1.56;;
71176;SDS011;58877;51.992;4.504;2022-10-16T03:25:35;1.48;;;1.43;;
71176;SDS011;58877;51.992;4.504;2022-10-16T03:28:00;1.48;;;1.44;;
71176;SDS011;58877;51.992;4.504;2022-10-16T03:30:26;1.59;;;1.54;;
71176;SDS011;58877;51.992;4.504;2022-10-16T03:32:52;1.35;;;1.32;;
71176;SDS011;58877;51.992;4.504;2022-10-16T03:35:22;1.59;;;1.56;;
71176;SDS011;58877;51.992;4.504;2022-10-16T03:37:49;1.71;;;1.68;;
71176;SDS011;58877;51.992;4.504;2022-10-16T03:40:16;1.71;;;1.66;;
71176;SDS011;58877;51.992;4.504;2022-10-16T03:42:42;1.48;;;1.42;;
71176;SDS011;58877;51.992;4.504;2022-10-16T03:45:09;1.41;;;1.36;;
71176;SDS011;58877;51.992;4.504;2022-10-16T03:47:35;1.38;;;1.33;;
71176;SDS011;58877;51.992;4.504;2022-10-16T03:50:00;1.36;;;1.31;;
71176;SDS011;58877;51.992;4.504;2022-10-16T03:52:26;1.45;;;1.41;;
71176;SDS011;58877;51.992;4.504;2022-10-16T03:54:52;1.33;;;1.29;;
71176;SDS011;58877;51.992;4.504;2022-10-16T03:57:17;1.27;;;1.23;;
71176;SDS011;58877;51.992;4.504;2022-10-16T03:59:43;1.42;;;1.37;;
71176;SDS011;58877;51.992;4.504;2022-10-16T04:02:08;1.50;;;1.45;;
71176;SDS011;58877;51.992;4.504;2022-10-16T04:04:34;1.50;;;1.45;;
71176;SDS011;58877;51.992;4.504;2022-10-16T04:07:00;1.26;;;1.21;;
71176;SDS011;58877;51.992;4.504;2022-10-16T04:09:25;1.41;;;1.36;;
71176;SDS011;58877;51.992;4.504;2022-10-16T04:11:51;1.56;;;1.51;;
71176;SDS011;58877;51.992;4.504;2022-10-16T04:14:16;1.41;;;1.37;;
71176;SDS011;58877;51.992;4.504;2022-10-16T04:16:42;1.61;;;1.56;;
71176;SDS011;58877;51.992;4.504;2022-10-16T04:19:08;1.54;;;1.50;;
71176;SDS011;58877;51.992;4.504;2022-10-16T04:21:34;1.81;;;1.76;;
71176;SDS011;58877;51.992;4.504;2022-10-16T04:24:00;1.62;;;1.58;;
71176;SDS011;58877;51.992;4.504;2022-10-16T04:26:25;1.48;;;1.46;;
71176;SDS011;58877;51.992;4.504;2022-10-16T04:28:50;1.68;;;1.66;;
71176;SDS011;58877;51.992;4.504;2022-10-16T04:31:16;1.50;;;1.49;;
71176;SDS011;58877;51.992;4.504;2022-10-16T04:33:42;1.54;;;1.53;;
71176;SDS011;58877;51.992;4.504;2022-10-16T04:36:11;1.53;;;1.52;;
71176;SDS011;58877;51.992;4.504;2022-10-16T04:38:37;1.41;;;1.40;;
71176;SDS011;58877;51.992;4.504;2022-10-16T04:41:07;1.52;;;1.50;;
71176;SDS011;58877;51.992;4.504;2022-10-16T04:43:33;1.22;;;1.21;;
71176;SDS011;58877;51.992;4.504;2022-10-16T04:45:59;1.49;;;1.48;;
71176;SDS011;58877;51.992;4.504;2022-10-16T04:48:25;1.48;;;1.46;;
71176;SDS011;58877;51.992;4.504;2022-10-16T04:50:50;1.72;;;1.69;;
71176;SDS011;58877;51.992;4.504;2022-10-16T04:53:16;1.48;;;1.45;;
71176;SDS011;58877;51.992;4.504;2022-10-16T04:55:41;1.61;;;1.56;;
71176;SDS011;58877;51.992;4.504;2022-10-16T04:58:07;1.40;;;1.36;;
71176;SDS011;58877;51.992;4.504;2022-10-16T05:00:33;1.59;;;1.55;;
71176;SDS011;58877;51.992;4.504;2022-10-16T05:02:59;1.46;;;1.42;;
71176;SDS011;58877;51.992;4.504;2022-10-16T05:05:26;1.40;;;1.37;;
71176;SDS011;58877;51.992;4.504;2022-10-16T05:07:52;1.46;;;1.43;;
71176;SDS011;58877;51.992;4.504;2022-10-16T05:10:18;1.64;;;1.60;;
71176;SDS011;58877;51.992;4.504;2022-10-16T05:12:44;1.53;;;1.49;;
71176;SDS011;58877;51.992;4.504;2022-10-16T05:15:10;1.30;;;1.27;;
71176;SDS011;58877;51.992;4.504;2022-10-16T05:17:35;1.35;;;1.32;;
71176;SDS011;58877;51.992;4.504;2022-10-16T05:20:01;1.85;;;1.78;;
71176;SDS011;58877;51.992;4.504;2022-10-16T05:22:28;1.71;;;1.64;;
71176;SDS011;58877;51.992;4.504;2022-10-16T05:24:54;1.62;;;1.54;;
71176;SDS011;58877;51.992;4.504;2022-10-16T05:27:19;1.54;;;1.47;;
71176;SDS011;58877;51.992;4.504;2022-10-16T05:29:46;1.73;;;1.66;;
71176;SDS011;58877;51.992;4.504;2022-10-16T05:32:13;1.49;;;1.42;;
71176;SDS011;58877;51.992;4.504;2022-10-16T05:34:40;1.44;;;1.36;;
71176;SDS011;58877;51.992;4.504;2022-10-16T05:37:05;1.40;;;1.35;;
71176;SDS011;58877;51.992;4.504;2022-10-16T05:39:31;1.72;;;1.65;;
71176;SDS011;58877;51.992;4.504;2022-10-16T05:41:56;1.66;;;1.55;;
71176;SDS011;58877;51.992;4.504;2022-10-16T05:44:22;1.43;;;1.33;;
71176;SDS011;58877;51.992;4.504;2022-10-16T05:46:47;1.76;;;1.63;;
71176;SDS011;58877;51.992;4.504;2022-10-16T05:49:13;1.61;;;1.49;;
71176;SDS011;58877;51.992;4.504;2022-10-16T05:51:39;1.50;;;1.39;;
71176;SDS011;58877;51.992;4.504;2022-10-16T05:54:04;1.62;;;1.51;;
71176;SDS011;58877;51.992;4.504;2022-10-16T05:56:30;1.67;;;1.54;;
71176;SDS011;58877;51.992;4.504;2022-10-16T05:58:55;1.77;;;1.59;;
71176;SDS011;58877;51.992;4.504;2022-10-16T06:01:21;1.85;;;1.65;;
71176;SDS011;58877;51.992;4.504;2022-10-16T06:03:50;1.97;;;1.75;;
71176;SDS011;58877;51.992;4.504;2022-10-16T06:06:17;1.79;;;1.56;;
71176;SDS011;58877;51.992;4.504;2022-10-16T06:08:45;1.48;;;1.30;;
71176;SDS011;58877;51.992;4.504;2022-10-16T06:11:15;1.89;;;1.71;;
71176;SDS011;58877;51.992;4.504;2022-10-16T06:13:44;1.61;;;1.46;;
71176;SDS011;58877;51.992;4.504;2022-10-16T06:16:12;1.40;;;1.27;;
71176;SDS011;58877;51.992;4.504;2022-10-16T06:18:38;1.60;;;1.45;;
71176;SDS011;58877;51.992;4.504;2022-10-16T06:21:08;1.65;;;1.48;;
71176;SDS011;58877;51.992;4.504;2022-10-16T06:23:35;1.66;;;1.50;;
71176;SDS011;58877;51.992;4.504;2022-10-16T06:26:07;1.57;;;1.43;;
71176;SDS011;58877;51.992;4.504;2022-10-16T06:28:34;1.64;;;1.46;;
71176;SDS011;58877;51.992;4.504;2022-10-16T06:31:01;1.70;;;1.50;;
71176;SDS011;58877;51.992;4.504;2022-10-16T06:33:27;1.87;;;1.60;;
71176;SDS011;58877;51.992;4.504;2022-10-16T06:35:52;1.72;;;1.48;;
71176;SDS011;58877;51.992;4.504;2022-10-16T06:38:18;1.70;;;1.43;;
71176;SDS011;58877;51.992;4.504;2022-10-16T06:40:44;1.78;;;1.47;;
71176;SDS011;58877;51.992;4.504;2022-10-16T06:43:10;1.47;;;1.24;;
71176;SDS011;58877;51.992;4.504;2022-10-16T06:45:35;1.96;;;1.67;;
71176;SDS011;58877;51.992;4.504;2022-10-16T06:48:03;1.78;;;1.52;;
71176;SDS011;58877;51.992;4.504;2022-10-16T06:50:29;1.72;;;1.49;;
71176;SDS011;58877;51.992;4.504;2022-10-16T06:52:54;1.49;;;1.28;;
71176;SDS011;58877;51.992;4.504;2022-10-16T06:55:26;1.49;;;1.29;;
71176;SDS011;58877;51.992;4.504;2022-10-16T06:57:52;1.79;;;1.53;;
71176;SDS011;58877;51.992;4.504;2022-10-16T07:00:18;1.65;;;1.40;;
71176;SDS011;58877;51.992;4.504;2022-10-16T07:02:43;1.79;;;1.48;;
71176;SDS011;58877;51.992;4.504;2022-10-16T07:05:09;1.88;;;1.55;;
71176;SDS011;58877;51.992;4.504;2022-10-16T07:07:34;1.94;;;1.59;;
71176;SDS011;58877;51.992;4.504;2022-10-16T07:10:00;1.87;;;1.56;;
71176;SDS011;58877;51.992;4.504;2022-10-16T07:12:25;1.91;;;1.55;;
71176;SDS011;58877;51.992;4.504;2022-10-16T07:14:51;2.41;;;1.96;;
71176;SDS011;58877;51.992;4.504;2022-10-16T07:17:17;2.17;;;1.80;;
71176;SDS011;58877;51.992;4.504;2022-10-16T07:19:43;1.96;;;1.63;;
71176;SDS011;58877;51.992;4.504;2022-10-16T07:22:09;2.00;;;1.68;;
71176;SDS011;58877;51.992;4.504;2022-10-16T07:24:35;2.19;;;1.86;;
71176;SDS011;58877;51.992;4.504;2022-10-16T07:27:00;2.16;;;1.87;;
71176;SDS011;58877;51.992;4.504;2022-10-16T07:29:26;2.38;;;2.05;;
71176;SDS011;58877;51.992;4.504;2022-10-16T07:31:51;2.15;;;1.85;;
71176;SDS011;58877;51.992;4.504;2022-10-16T07:34:18;2.02;;;1.73;;
71176;SDS011;58877;51.992;4.504;2022-10-16T07:36:49;2.23;;;1.94;;
71176;SDS011;58877;51.992;4.504;2022-10-16T07:39:15;1.91;;;1.66;;
71176;SDS011;58877;51.992;4.504;2022-10-16T07:41:41;2.11;;;1.85;;
71176;SDS011;58877;51.992;4.504;2022-10-16T07:44:07;1.95;;;1.71;;
71176;SDS011;58877;51.992;4.504;2022-10-16T07:46:42;2.02;;;1.76;;
71176;SDS011;58877;51.992;4.504;2022-10-16T07:49:08;1.70;;;1.47;;
71176;SDS011;58877;51.992;4.504;2022-10-16T07:51:34;2.09;;;1.81;;
71176;SDS011;58877;51.992;4.504;2022-10-16T07:53:59;2.45;;;2.09;;
71176;SDS011;58877;51.992;4.504;2022-10-16T07:56:25;2.15;;;1.82;;
71176;SDS011;58877;51.992;4.504;2022-10-16T07:58:50;2.09;;;1.78;;
71176;SDS011;58877;51.992;4.504;2022-10-16T08:01:16;2.07;;;1.71;;
71176;SDS011;58877;51.992;4.504;2022-10-16T08:03:43;1.99;;;1.64;;
71176;SDS011;58877;51.992;4.504;2022-10-16T08:06:11;1.96;;;1.65;;
71176;SDS011;58877;51.992;4.504;2022-10-16T08:08:37;2.36;;;1.95;;
71176;SDS011;58877;51.992;4.504;2022-10-16T08:11:02;2.24;;;1.83;;
71176;SDS011;58877;51.992;4.504;2022-10-16T08:13:29;2.05;;;1.67;;
71176;SDS011;58877;51.992;4.504;2022-10-16T08:15:56;2.29;;;1.84;;
71176;SDS011;58877;51.992;4.504;2022-10-16T08:18:21;2.38;;;1.88;;
71176;SDS011;58877;51.992;4.504;2022-10-16T08:20:47;2.64;;;2.03;;
71176;SDS011;58877;51.992;4.504;2022-10-16T08:23:13;2.95;;;2.23;;
71176;SDS011;58877;51.992;4.504;2022-10-16T08:25:42;2.28;;;1.74;;
71176;SDS011;58877;51.992;4.504;2022-10-16T08:28:08;2.58;;;1.97;;
71176;SDS011;58877;51.992;4.504;2022-10-16T08:30:39;2.47;;;1.88;;
71176;SDS011;58877;51.992;4.504;2022-10-16T08:33:05;2.68;;;2.02;;
71176;SDS011;58877;51.992;4.504;2022-10-16T08:35:31;2.88;;;2.15;;
71176;SDS011;58877;51.992;4.504;2022-10-16T08:37:57;3.04;;;2.25;;
71176;SDS011;58877;51.992;4.504;2022-10-16T08:40:24;2.72;;;1.95;;
71176;SDS011;58877;51.992;4.504;2022-10-16T08:51:07;3.52;;;2.53;;
71176;SDS011;58877;51.992;4.504;2022-10-16T08:53:42;2.82;;;2.04;;
71176;SDS011;58877;51.992;4.504;2022-10-16T08:56:31;2.91;;;2.13;;
71176;SDS011;58877;51.992;4.504;2022-10-16T08:58:58;3.04;;;2.25;;
71176;SDS011;58877;51.992;4.504;2022-10-16T09:01:32;2.69;;;1.95;;
71176;SDS011;58877;51.992;4.504;2022-10-16T09:04:20;3.21;;;2.33;;
71176;SDS011;58877;51.992;4.504;2022-10-16T09:12:43;3.94;;;2.74;;
71176;SDS011;58877;51.992;4.504;2022-10-16T09:15:36;3.50;;;2.43;;
71176;SDS011;58877;51.992;4.504;2022-10-16T09:21:15;4.14;;;2.75;;
71176;SDS011;58877;51.992;4.504;2022-10-16T09:23:46;4.16;;;2.77;;
71176;SDS011;58877;51.992;4.504;2022-10-16T09:26:50;5.03;;;3.36;;
71176;SDS011;58877;51.992;4.504;2022-10-16T09:29:20;4.96;;;3.24;;
71176;SDS011;58877;51.992;4.504;2022-10-16T09:31:50;4.72;;;3.09;;
71176;SDS011;58877;51.992;4.504;2022-10-16T09:34:42;5.29;;;3.44;;
71176;SDS011;58877;51.992;4.504;2022-10-16T09:37:17;3.82;;;2.52;;
71176;SDS011;58877;51.992;4.504;2022-10-16T09:39:46;4.05;;;2.68;;
71176;SDS011;58877;51.992;4.504;2022-10-16T09:42:17;4.82;;;3.15;;
71176;SDS011;58877;51.992;4.504;2022-10-16T09:44:48;4.97;;;3.22;;
71176;SDS011;58877;51.992;4.504;2022-10-16T09:47:23;4.86;;;3.13;;
71176;SDS011;58877;51.992;4.504;2022-10-16T09:52:22;5.23;;;3.29;;
71176;SDS011;58877;51.992;4.504;2022-10-16T09:54:52;5.30;;;3.30;;
71176;SDS011;58877;51.992;4.504;2022-10-16T09:57:27;5.44;;;3.41;;
71176;SDS011;58877;51.992;4.504;2022-10-16T09:59:56;4.39;;;2.75;;
71176;SDS011;58877;51.992;4.504;2022-10-16T10:02:44;5.16;;;3.25;;
71176;SDS011;58877;51.992;4.504;2022-10-16T10:07:44;5.38;;;3.35;;
71176;SDS011;58877;51.992;4.504;2022-10-16T10:10:25;4.94;;;3.08;;
71176;SDS011;58877;51.992;4.504;2022-10-16T10:12:53;5.25;;;3.33;;
71176;SDS011;58877;51.992;4.504;2022-10-16T10:15:20;4.78;;;3.02;;
71176;SDS011;58877;51.992;4.504;2022-10-16T10:17:57;6.43;;;3.99;;
71176;SDS011;58877;51.992;4.504;2022-10-16T10:22:53;5.13;;;3.26;;
71176;SDS011;58877;51.992;4.504;2022-10-16T10:31:17;4.40;;;2.96;;
71176;SDS011;58877;51.992;4.504;2022-10-16T10:37:29;4.58;;;3.08;;
71176;SDS011;58877;51.992;4.504;2022-10-16T10:40:09;5.37;;;3.48;;
71176;SDS011;58877;51.992;4.504;2022-10-16T10:42:50;5.38;;;3.44;;
71176;SDS011;58877;51.992;4.504;2022-10-16T10:45:37;5.14;;;3.32;;
71176;SDS011;58877;51.992;4.504;2022-10-16T10:51:11;6.16;;;3.84;;
71176;SDS011;58877;51.992;4.504;2022-10-16T10:53:55;5.09;;;3.16;;
71176;SDS011;58877;51.992;4.504;2022-10-16T11:05:26;5.33;;;3.31;;
71176;SDS011;58877;51.992;4.504;2022-10-16T11:07:45;5.63;;;3.40;;
71176;SDS011;58877;51.992;4.504;2022-10-16T11:10:21;6.08;;;3.63;;
71176;SDS011;58877;51.992;4.504;2022-10-16T11:13:11;5.68;;;3.43;;
71176;SDS011;58877;51.992;4.504;2022-10-16T11:15:50;5.82;;;3.50;;
71176;SDS011;58877;51.992;4.504;2022-10-16T11:18:22;6.30;;;3.75;;
71176;SDS011;58877;51.992;4.504;2022-10-16T11:21:11;5.22;;;3.10;;
71176;SDS011;58877;51.992;4.504;2022-10-16T11:23:55;5.51;;;3.29;;
71176;SDS011;58877;51.992;4.504;2022-10-16T11:26:27;5.58;;;3.33;;
71176;SDS011;58877;51.992;4.504;2022-10-16T11:28:59;6.04;;;3.57;;
71176;SDS011;58877;51.992;4.504;2022-10-16T11:31:39;5.90;;;3.47;;
71176;SDS011;58877;51.992;4.504;2022-10-16T11:34:17;5.29;;;3.13;;
71176;SDS011;58877;51.992;4.504;2022-10-16T11:36:53;5.89;;;3.46;;
71176;SDS011;58877;51.992;4.504;2022-10-16T11:39:29;6.33;;;3.74;;
71176;SDS011;58877;51.992;4.504;2022-10-16T11:44:38;7.72;;;4.48;;
71176;SDS011;58877;51.992;4.504;2022-10-16T11:52:53;5.34;;;3.17;;
71176;SDS011;58877;51.992;4.504;2022-10-16T11:55:38;5.79;;;3.43;;
71176;SDS011;58877;51.992;4.504;2022-10-16T11:58:51;6.22;;;3.66;;
71176;SDS011;58877;51.992;4.504;2022-10-16T12:08:49;10.43;;;6.55;;
71176;SDS011;58877;51.992;4.504;2022-10-16T12:14:03;12.05;;;10.15;;
71176;SDS011;58877;51.992;4.504;2022-10-16T12:16:30;12.58;;;12.23;;
71176;SDS011;58877;51.992;4.504;2022-10-16T12:19:03;7.73;;;7.73;;
71176;SDS011;58877;51.992;4.504;2022-10-16T12:21:40;6.43;;;6.40;;
71176;SDS011;58877;51.992;4.504;2022-10-16T12:24:18;7.19;;;7.19;;
71176;SDS011;58877;51.992;4.504;2022-10-16T12:26:52;8.95;;;8.95;;
71176;SDS011;58877;51.992;4.504;2022-10-16T12:32:02;4.57;;;4.42;;
71176;SDS011;58877;51.992;4.504;2022-10-16T12:34:41;3.73;;;3.52;;
71176;SDS011;58877;51.992;4.504;2022-10-16T12:37:31;3.54;;;3.37;;
71176;SDS011;58877;51.992;4.504;2022-10-16T12:42:54;6.50;;;5.85;;
71176;SDS011;58877;51.992;4.504;2022-10-16T12:47:56;2.36;;;1.88;;
71176;SDS011;58877;51.992;4.504;2022-10-16T12:52:49;4.23;;;2.95;;
71176;SDS011;58877;51.992;4.504;2022-10-16T12:55:18;4.45;;;3.01;;
71176;SDS011;58877;51.992;4.504;2022-10-16T12:57:53;4.39;;;2.90;;
71176;SDS011;58877;51.992;4.504;2022-10-16T13:06:11;4.39;;;2.82;;
71176;SDS011;58877;51.992;4.504;2022-10-16T13:19:39;4.74;;;3.05;;
71176;SDS011;58877;51.992;4.504;2022-10-16T13:22:29;4.09;;;2.59;;
71176;SDS011;58877;51.992;4.504;2022-10-16T13:25:16;4.43;;;2.78;;
71176;SDS011;58877;51.992;4.504;2022-10-16T13:27:52;5.28;;;3.31;;
71176;SDS011;58877;51.992;4.504;2022-10-16T13:30:38;4.51;;;2.83;;
71176;SDS011;58877;51.992;4.504;2022-10-16T13:33:28;4.65;;;2.90;;
71176;SDS011;58877;51.992;4.504;2022-10-16T13:35:59;5.19;;;3.18;;
71176;SDS011;58877;51.992;4.504;2022-10-16T13:38:27;5.87;;;3.56;;
71176;SDS011;58877;51.992;4.504;2022-10-16T13:40:56;5.06;;;3.07;;
71176;SDS011;58877;51.992;4.504;2022-10-16T13:43:29;4.97;;;3.04;;
71176;SDS011;58877;51.992;4.504;2022-10-16T13:46:11;4.06;;;2.52;;
71176;SDS011;58877;51.992;4.504;2022-10-16T13:48:39;5.14;;;3.18;;
71176;SDS011;58877;51.992;4.504;2022-10-16T13:51:05;4.29;;;2.63;;
71176;SDS011;58877;51.992;4.504;2022-10-16T13:53:40;4.68;;;2.90;;
71176;SDS011;58877;51.992;4.504;2022-10-16T13:56:09;5.66;;;3.51;;
71176;SDS011;58877;51.992;4.504;2022-10-16T13:58:40;5.01;;;3.13;;
71176;SDS011;58877;51.992;4.504;2022-10-16T14:01:25;5.71;;;3.57;;
71176;SDS011;58877;51.992;4.504;2022-10-16T14:04:00;5.06;;;3.12;;
71176;SDS011;58877;51.992;4.504;2022-10-16T14:06:35;5.14;;;3.19;;
71176;SDS011;58877;51.992;4.504;2022-10-16T14:11:48;5.92;;;3.70;;
71176;SDS011;58877;51.992;4.504;2022-10-16T14:14:20;6.07;;;3.84;;
71176;SDS011;58877;51.992;4.504;2022-10-16T14:16:47;5.24;;;3.33;;
71176;SDS011;58877;51.992;4.504;2022-10-16T14:19:22;4.52;;;2.89;;
71176;SDS011;58877;51.992;4.504;2022-10-16T14:21:52;5.26;;;3.41;;
71176;SDS011;58877;51.992;4.504;2022-10-16T14:26:56;4.72;;;3.14;;
71176;SDS011;58877;51.992;4.504;2022-10-16T14:29:23;4.20;;;2.84;;
71176;SDS011;58877;51.992;4.504;2022-10-16T14:34:32;4.85;;;3.15;;
71176;SDS011;58877;51.992;4.504;2022-10-16T14:37:08;4.21;;;2.75;;
71176;SDS011;58877;51.992;4.504;2022-10-16T14:39:55;4.67;;;3.04;;
71176;SDS011;58877;51.992;4.504;2022-10-16T14:42:22;4.58;;;2.98;;
71176;SDS011;58877;51.992;4.504;2022-10-16T14:44:50;4.82;;;3.08;;
71176;SDS011;58877;51.992;4.504;2022-10-16T14:47:19;5.27;;;3.38;;
71176;SDS011;58877;51.992;4.504;2022-10-16T14:49:50;4.69;;;2.99;;
71176;SDS011;58877;51.992;4.504;2022-10-16T14:52:17;4.90;;;3.12;;
71176;SDS011;58877;51.992;4.504;2022-10-16T14:54:42;4.96;;;3.16;;
71176;SDS011;58877;51.992;4.504;2022-10-16T14:57:18;5.29;;;3.36;;
71176;SDS011;58877;51.992;4.504;2022-10-16T14:59:45;5.12;;;3.33;;
71176;SDS011;58877;51.992;4.504;2022-10-16T15:04:45;4.80;;;3.09;;
71176;SDS011;58877;51.992;4.504;2022-10-16T15:07:11;6.08;;;4.05;;
71176;SDS011;58877;51.992;4.504;2022-10-16T15:09:36;4.61;;;3.10;;
71176;SDS011;58877;51.992;4.504;2022-10-16T15:12:02;13.77;;;10.19;;
71176;SDS011;58877;51.992;4.504;2022-10-16T15:14:27;5.08;;;4.24;;
71176;SDS011;58877;51.992;4.504;2022-10-16T15:16:53;4.22;;;3.46;;
71176;SDS011;58877;51.992;4.504;2022-10-16T15:19:18;3.22;;;2.53;;
71176;SDS011;58877;51.992;4.504;2022-10-16T15:21:44;4.44;;;3.32;;
71176;SDS011;58877;51.992;4.504;2022-10-16T15:24:11;4.23;;;3.04;;
71176;SDS011;58877;51.992;4.504;2022-10-16T15:26:38;3.52;;;2.51;;
71176;SDS011;58877;51.992;4.504;2022-10-16T15:29:04;4.29;;;2.97;;
71176;SDS011;58877;51.992;4.504;2022-10-16T15:31:30;4.32;;;2.88;;
71176;SDS011;58877;51.992;4.504;2022-10-16T15:33:56;4.02;;;2.69;;
71176;SDS011;58877;51.992;4.504;2022-10-16T15:36:30;5.23;;;3.44;;
71176;SDS011;58877;51.992;4.504;2022-10-16T15:39:20;4.33;;;2.81;;
71176;SDS011;58877;51.992;4.504;2022-10-16T15:41:46;4.86;;;3.09;;
71176;SDS011;58877;51.992;4.504;2022-10-16T15:44:18;4.77;;;3.02;;
71176;SDS011;58877;51.992;4.504;2022-10-16T15:46:45;4.82;;;3.01;;
71176;SDS011;58877;51.992;4.504;2022-10-16T15:49:12;4.92;;;3.11;;
71176;SDS011;58877;51.992;4.504;2022-10-16T15:51:38;4.44;;;2.82;;
71176;SDS011;58877;51.992;4.504;2022-10-16T15:54:05;4.98;;;3.16;;
71176;SDS011;58877;51.992;4.504;2022-10-16T15:56:31;5.30;;;3.42;;
71176;SDS011;58877;51.992;4.504;2022-10-16T15:58:58;5.53;;;3.62;;
71176;SDS011;58877;51.992;4.504;2022-10-16T16:01:24;5.75;;;3.86;;
71176;SDS011;58877;51.992;4.504;2022-10-16T16:03:54;5.62;;;3.80;;
71176;SDS011;58877;51.992;4.504;2022-10-16T16:06:20;5.00;;;3.48;;
71176;SDS011;58877;51.992;4.504;2022-10-16T16:08:49;4.29;;;3.01;;
71176;SDS011;58877;51.992;4.504;2022-10-16T16:11:15;4.35;;;3.00;;
71176;SDS011;58877;51.992;4.504;2022-10-16T16:13:42;4.50;;;3.11;;
71176;SDS011;58877;51.992;4.504;2022-10-16T16:16:09;4.80;;;3.29;;
71176;SDS011;58877;51.992;4.504;2022-10-16T16:18:37;3.62;;;2.50;;
71176;SDS011;58877;51.992;4.504;2022-10-16T16:21:03;3.97;;;2.73;;
71176;SDS011;58877;51.992;4.504;2022-10-16T16:23:29;4.33;;;2.94;;
71176;SDS011;58877;51.992;4.504;2022-10-16T16:26:02;3.87;;;2.59;;
71176;SDS011;58877;51.992;4.504;2022-10-16T16:28:32;4.03;;;2.75;;
71176;SDS011;58877;51.992;4.504;2022-10-16T16:30:58;4.13;;;2.86;;
71176;SDS011;58877;51.992;4.504;2022-10-16T16:33:24;4.20;;;2.93;;
71176;SDS011;58877;51.992;4.504;2022-10-16T16:35:49;3.95;;;2.78;;
71176;SDS011;58877;51.992;4.504;2022-10-16T16:38:15;3.71;;;2.71;;
71176;SDS011;58877;51.992;4.504;2022-10-16T16:40:40;3.46;;;2.60;;
71176;SDS011;58877;51.992;4.504;2022-10-16T16:43:06;3.78;;;2.85;;
71176;SDS011;58877;51.992;4.504;2022-10-16T16:45:34;3.73;;;2.77;;
71176;SDS011;58877;51.992;4.504;2022-10-16T16:48:00;3.95;;;2.87;;
71176;SDS011;58877;51.992;4.504;2022-10-16T16:50:26;4.02;;;2.93;;
71176;SDS011;58877;51.992;4.504;2022-10-16T16:52:51;3.63;;;2.69;;
71176;SDS011;58877;51.992;4.504;2022-10-16T16:55:17;3.94;;;2.91;;
71176;SDS011;58877;51.992;4.504;2022-10-16T16:57:42;4.35;;;3.30;;